Time;durP1;ratioP1;P1;durP2;ratioP2;P2;SDS_P1;SDS_P2;PMS_P1;PMS_P2;Temp;Humidity;BMP_temperature;BMP_pressure;BME280_temperature;BME280_humidity;BME280_pressure;Samples;Min_cycle;Max_cycle;Signal;HPM_P1;HPM_P2
2023/01/28 00:00:44;;;;;;;134.45;73.75;;;;;;;8.87;69.52;99081.66;5044703;28;20053;-70
2023/01/28 00:03:34;;;;;;;149.95;75.75;;;;;;;8.88;68.06;99083.31;5044209;28;20051;-68
2023/01/28 00:06:17;;;;;;;145.05;75.65;;;;;;;8.97;68.16;99084.91;5044360;28;20052;-68
2023/01/28 00:09:06;;;;;;;135.50;72.22;;;;;;;8.94;67.95;99084.41;5021277;28;20054;-67
2023/01/28 00:11:48;;;;;;;135.27;72.07;;;;;;;8.95;67.74;99089.53;5027550;28;20100;-69
2023/01/28 00:14:37;;;;;;;141.38;73.68;;;;;;;8.94;67.50;99095.81;5043924;28;20045;-67
2023/01/28 00:17:19;;;;;;;154.00;77.65;;;;;;;8.92;67.66;99108.38;5044136;28;20057;-68
2023/01/28 00:20:09;;;;;;;142.93;75.10;;;;;;;8.97;67.41;99106.06;5030712;28;20076;-69
2023/01/28 00:22:52;;;;;;;141.75;74.35;;;;;;;9.02;67.10;99113.47;5044541;28;20576;-68
2023/01/28 00:25:41;;;;;;;135.95;72.72;;;;;;;9.01;66.93;99111.81;5024311;28;20053;-67
2023/01/28 00:28:23;;;;;;;140.02;74.07;;;;;;;9.02;67.34;99106.38;5029704;28;20067;-67
2023/01/28 00:31:15;;;;;;;147.80;76.57;;;;;;;9.08;66.82;99107.47;5010013;28;20068;-68
2023/01/28 00:33:59;;;;;;;138.73;76.35;;;;;;;9.05;66.77;99099.91;5024814;28;20384;-68
2023/01/28 00:36:56;;;;;;;145.68;75.40;;;;;;;9.00;66.41;99097.78;5003289;28;20058;-68
2023/01/28 00:39:38;;;;;;;138.80;74.85;;;;;;;8.98;66.76;99104.25;5004650;28;20054;-68
2023/01/28 00:42:27;;;;;;;145.80;72.95;;;;;;;8.97;67.39;99108.69;5027675;28;20126;-68
2023/01/28 00:45:17;;;;;;;139.43;73.30;;;;;;;8.94;67.11;99101.09;5034310;28;20385;-68
2023/01/28 00:48:01;;;;;;;133.23;71.97;;;;;;;8.90;67.31;99106.88;5022978;28;20053;-68
2023/01/28 00:50:52;;;;;;;140.65;73.47;;;;;;;8.92;67.87;99100.47;5027808;28;20040;-68
2023/01/28 00:53:42;;;;;;;136.68;72.68;;;;;;;8.89;67.51;99108.75;5004504;28;20132;-69
2023/01/28 00:56:35;;;;;;;138.23;73.95;;;;;;;8.82;67.27;99110.41;5031977;28;20801;-70
2023/01/28 00:59:25;;;;;;;138.95;72.88;;;;;;;8.82;67.19;99114.84;5034625;28;20053;-68
2023/01/28 01:02:13;;;;;;;145.55;72.72;;;;;;;8.87;67.09;99105.44;5030075;28;20140;-69
2023/01/28 01:05:02;;;;;;;123.18;68.43;;;;;;;8.97;67.17;99111.34;5025830;28;20583;-67
2023/01/28 01:07:44;;;;;;;126.05;66.95;;;;;;;8.90;67.04;99106.88;5044027;28;20057;-69
2023/01/28 01:10:33;;;;;;;124.43;65.25;;;;;;;8.99;66.40;99119.91;5042778;28;20049;-69
2023/01/28 01:13:15;;;;;;;114.15;62.50;;;;;;;9.14;66.38;99108.59;5006149;28;20107;-69
2023/01/28 01:16:17;;;;;;;113.95;59.75;;;;;;;9.29;65.44;99106.88;5023972;28;20052;-67
2023/01/28 01:18:59;;;;;;;113.55;61.28;;;;;;;9.39;65.80;99094.25;5023094;28;20102;-69
2023/01/28 01:21:49;;;;;;;117.05;58.70;;;;;;;9.36;64.85;99084.84;5028575;28;20057;-67
2023/01/28 01:24:32;;;;;;;108.07;57.40;;;;;;;9.44;64.44;99095.38;5028853;28;20045;-69
2023/01/28 01:27:21;;;;;;;104.03;55.03;;;;;;;9.56;64.75;99085.19;5021785;28;20076;-69
2023/01/28 01:30:17;;;;;;;103.40;57.55;;;;;;;9.68;66.23;99077.69;5019732;28;20092;-69
2023/01/28 01:33:12;;;;;;;107.07;58.10;;;;;;;9.51;65.30;99087.56;5011712;28;20057;-69
2023/01/28 01:35:53;;;;;;;113.13;58.65;;;;;;;9.44;66.54;99097.19;5011799;28;20049;-69
2023/01/28 01:38:49;;;;;;;109.57;57.85;;;;;;;9.36;65.21;99113.94;5003290;28;20042;-68
2023/01/28 01:41:30;;;;;;;117.53;58.55;;;;;;;9.77;65.19;99127.72;5002887;28;20053;-69
2023/01/28 01:44:53;;;;;;;102.20;55.03;;;;;;;9.86;65.70;99116.06;5004067;28;20129;-67
2023/01/28 01:47:54;;;;;;;107.45;56.00;;;;;;;9.91;63.85;99115.53;4999880;28;20485;-69
2023/01/28 01:50:57;;;;;;;98.07;53.72;;;;;;;9.78;65.56;99126.69;5007948;28;20056;-69
2023/01/28 01:53:33;;;;;;;110.75;54.28;;;;;;;9.57;65.45;99136.25;4990950;28;20635;-69
2023/01/28 01:56:33;;;;;;;110.00;53.97;;;;;;;9.58;65.30;99149.31;5021263;28;20057;-69
2023/01/28 01:59:13;;;;;;;;;;;;;;;9.89;64.56;99149.25;5026435;28;20061;-69
2023/01/28 02:02:06;;;;;;;97.38;50.55;;;;;;;9.75;64.96;99142.09;5013821;28;20007;-67
2023/01/28 02:04:50;;;;;;;95.35;50.15;;;;;;;9.69;65.36;99146.25;5026020;28;20578;-67
2023/01/28 02:07:48;;;;;;;89.60;49.45;;;;;;;9.73;64.88;99147.56;4990048;28;20845;-69
2023/01/28 02:10:24;;;;;;;100.82;48.05;;;;;;;9.91;63.22;99145.44;5000060;28;20075;-68
2023/01/28 02:13:15;;;;;;;101.32;50.65;;;;;;;10.16;62.21;99147.94;5010901;28;20054;-67
2023/01/28 02:15:58;;;;;;;87.80;47.55;;;;;;;10.27;61.96;99150.94;5017638;28;20061;-68
2023/01/28 02:18:47;;;;;;;91.10;49.25;;;;;;;10.24;61.80;99153.97;5001147;28;20057;-67
2023/01/28 02:22:04;;;;;;;90.80;48.00;;;;;;;10.09;61.75;99166.28;5023687;28;20683;-68
2023/01/28 02:25:16;;;;;;;99.95;47.70;;;;;;;10.01;62.34;99174.28;5007103;28;20746;-67
2023/01/28 02:28:33;;;;;;;99.97;48.25;;;;;;;10.15;62.43;99180.66;4989266;28;20113;-68
2023/01/28 02:31:31;;;;;;;91.75;48.45;;;;;;;10.20;62.44;99176.50;5027233;28;20077;-68
2023/01/28 02:34:39;;;;;;;88.88;46.38;;;;;;;10.06;62.35;99179.88;5036092;28;20049;-67
2023/01/28 02:37:45;;;;;;;88.90;45.50;;;;;;;10.00;62.20;99185.09;5006658;28;20050;-68
2023/01/28 02:41:00;;;;;;;91.78;47.05;;;;;;;9.92;63.23;99192.06;5025287;28;20111;-69
2023/01/28 02:43:46;;;;;;;94.20;46.50;;;;;;;9.86;62.83;99192.78;5026250;28;20061;-67
2023/01/28 02:49:42;;;;;;;96.50;46.45;;;;;;;9.66;65.23;99203.97;5026267;28;20438;-69
2023/01/28 02:56:19;;;;;;;94.55;49.08;;;;;;;9.84;65.69;99218.56;5022548;28;20714;-68
2023/01/28 02:59:32;;;;;;;93.72;47.83;;;;;;;10.06;65.88;99213.47;5024895;28;20037;-68
2023/01/28 03:02:24;;;;;;;88.05;46.45;;;;;;;10.50;64.14;99222.41;5008319;28;20067;-68
2023/01/28 03:05:14;;;;;;;106.90;49.92;;;;;;;10.70;63.02;99215.59;5025091;28;20543;-68
2023/01/28 03:09:21;;;;;;;108.72;54.65;;;;;;;10.96;61.93;99217.00;5008255;28;20053;-67
2023/01/28 03:36:59;;;;;;;123.82;63.17;;;;;;;15.28;45.86;99230.44;5012829;28;20046;-69
2023/01/28 03:40:11;;;;;;;111.10;61.45;;;;;;;16.03;45.21;99234.25;4985135;28;20058;-69
2023/01/28 03:43:00;;;;;;;112.13;58.92;;;;;;;16.43;44.09;99232.97;4997221;28;20058;-68
2023/01/28 03:45:58;;;;;;;104.03;57.83;;;;;;;17.08;43.17;99235.34;5006122;28;20729;-68
2023/01/28 03:48:35;;;;;;;103.43;58.58;;;;;;;17.49;40.49;99243.53;5005121;28;20061;-70
2023/01/28 03:51:25;;;;;;;103.57;56.25;;;;;;;17.87;40.71;99244.13;5005361;28;20806;-70
2023/01/28 03:54:07;;;;;;;104.15;54.35;;;;;;;18.04;39.48;99244.31;5008476;28;20108;-69
2023/01/28 03:57:02;;;;;;;91.72;49.17;;;;;;;18.59;37.28;99252.19;5004007;28;20068;-70
2023/01/28 03:59:38;;;;;;;102.22;50.42;;;;;;;18.75;37.09;99251.53;4985579;28;20074;-68
2023/01/28 04:02:28;;;;;;;81.78;47.63;;;;;;;19.40;37.08;99254.06;4984398;28;20073;-67
2023/01/28 04:05:21;;;;;;;89.80;45.13;;;;;;;19.58;34.28;99246.72;5006224;28;20061;-68
2023/01/28 04:08:17;;;;;;;75.78;45.78;;;;;;;19.83;35.39;99246.41;5012681;28;20476;-70
2023/01/28 04:11:18;;;;;;;74.57;43.65;;;;;;;19.83;36.02;99254.47;5019750;28;20054;-69
2023/01/28 04:14:15;;;;;;;85.70;41.55;;;;;;;19.83;34.92;99254.47;5023287;28;20053;-69
2023/01/28 04:16:58;;;;;;;80.35;40.88;;;;;;;20.29;33.65;99258.84;5022655;28;20053;-69
2023/01/28 04:19:49;;;;;;;85.88;40.80;;;;;;;20.77;33.21;99250.28;5012399;28;20053;-70
2023/01/28 04:22:39;;;;;;;87.43;40.78;;;;;;;20.86;34.25;99259.59;5007265;28;20049;-69
2023/01/28 04:25:36;;;;;;;75.43;41.30;;;;;;;20.90;33.03;99257.22;5014992;28;20045;-69
2023/01/28 04:28:12;;;;;;;76.60;42.60;;;;;;;21.50;33.42;99255.44;5005089;28;20124;-71
2023/01/28 04:31:07;;;;;;;70.93;40.07;;;;;;;21.36;31.56;99254.16;5007491;28;20092;-70
2023/01/28 04:34:25;;;;;;;70.85;37.28;;;;;;;21.45;31.89;99252.69;5025400;28;20294;-70
2023/01/28 04:37:40;;;;;;;73.68;38.70;;;;;;;21.57;30.64;99260.63;4994118;28;20454;-71
2023/01/28 04:40:58;;;;;;;79.38;40.05;;;;;;;21.74;30.60;99271.34;5010692;28;20524;-70
2023/01/28 04:43:50;;;;;;;70.65;38.67;;;;;;;21.99;30.08;99273.59;5021366;28;20156;-72
2023/01/28 04:46:52;;;;;;;72.70;39.10;;;;;;;22.15;31.47;99270.81;4999797;28;20425;-70
2023/01/28 04:50:00;;;;;;;77.15;38.03;;;;;;;22.22;28.82;99267.88;5029830;28;20057;-69
2023/01/28 04:53:05;;;;;;;68.53;38.97;;;;;;;21.78;29.09;99267.91;5005216;28;20057;-69
2023/01/28 04:56:12;;;;;;;66.95;37.70;;;;;;;21.81;28.99;99258.53;5029225;28;20053;-71
2023/01/28 04:59:08;;;;;;;64.70;36.08;;;;;;;21.83;28.06;99256.38;5025185;28;20080;-69
2023/01/28 05:01:44;;;;;;;70.13;37.70;;;;;;;22.18;31.81;99256.81;5029433;28;20065;-71
2023/01/28 05:04:40;;;;;;;76.45;40.40;;;;;;;21.84;38.42;99266.09;5013358;28;20068;-71
2023/01/28 05:07:31;;;;;;;71.68;38.08;;;;;;;21.71;32.44;99259.22;5024689;28;20076;-67
2023/01/28 05:10:29;;;;;;;69.95;38.83;;;;;;;21.92;33.61;99249.47;5013433;28;20049;-67
2023/01/28 05:13:06;;;;;;;82.60;41.13;;;;;;;22.23;37.85;99256.84;5029563;28;20068;-63
2023/01/28 05:16:01;;;;;;;77.68;39.90;;;;;;;22.09;32.78;99252.09;5033399;28;20052;-66
2023/01/28 05:18:37;;;;;;;71.20;38.22;;;;;;;21.81;32.38;99245.84;5013004;28;20056;-66
2023/01/28 05:21:27;;;;;;;;;;;;;;;21.67;36.29;99259.97;5016874;28;20140;-68
2023/01/28 05:24:15;;;;;;;74.45;39.83;;;;;;;21.60;33.11;99259.34;5029912;28;19925;-69
2023/01/28 05:27:04;;;;;;;62.67;34.55;;;;;;;21.62;31.70;99255.31;5010392;28;20707;-68
2023/01/28 05:29:46;;;;;;;59.72;31.73;;;;;;;21.59;30.42;99245.03;5025320;28;20069;-66
2023/01/28 05:32:41;;;;;;;52.22;29.10;;;;;;;20.93;33.29;99245.97;5010537;28;20049;-68
2023/01/28 05:35:21;;;;;;;54.22;29.63;;;;;;;21.05;34.23;99236.72;5032748;28;20056;-69
2023/01/28 05:38:10;;;;;;;50.33;28.03;;;;;;;20.53;33.86;99232.69;5016784;28;20693;-69
2023/01/28 05:40:55;;;;;;;47.30;27.67;;;;;;;21.01;37.45;99230.22;5028201;28;20055;-70
2023/01/28 05:43:45;;;;;;;51.95;29.95;;;;;;;20.58;32.70;99217.41;5033189;28;20060;-66
2023/01/28 05:46:45;;;;;;;54.75;30.13;;;;;;;20.54;36.62;99210.06;5009951;28;20628;-66
2023/01/28 05:49:50;;;;;;;53.63;30.15;;;;;;;20.02;34.11;99202.16;5018467;28;20148;-67
2023/01/28 05:52:44;;;;;;;64.57;29.92;;;;;;;20.33;35.98;99203.53;5021752;28;20045;-68
2023/01/28 05:55:37;;;;;;;;;;;;;;;20.79;35.84;99206.97;5008823;28;20045;-64
2023/01/28 05:58:20;;;;;;;59.65;30.42;;;;;;;21.35;34.07;99200.50;5028884;28;19928;-69
2023/01/28 06:01:10;;;;;;;60.45;31.40;;;;;;;21.46;32.29;99194.22;5026395;28;20530;-67
2023/01/28 06:03:58;;;;;;;53.92;29.63;;;;;;;22.31;32.86;99199.72;5013774;28;20494;-67
2023/01/28 06:06:54;;;;;;;67.43;31.73;;;;;;;22.22;34.98;99181.53;5018551;28;20049;-66
2023/01/28 06:09:30;;;;;;;61.75;33.72;;;;;;;22.28;35.87;99178.66;5018381;28;20045;-67
2023/01/28 06:12:21;;;;;;;61.35;32.15;;;;;;;22.65;32.70;99167.88;5017424;28;20451;-67
2023/01/28 06:15:21;;;;;;;60.90;31.60;;;;;;;23.07;33.33;99169.78;5034771;28;20848;-69
2023/01/28 06:18:23;;;;;;;55.55;29.20;;;;;;;22.23;30.82;99173.19;5032993;28;20477;-66
2023/01/28 06:21:06;;;;;;;50.08;28.27;;;;;;;21.78;32.98;99165.44;5012849;28;20049;-67
2023/01/28 06:24:02;;;;;;;55.83;29.40;;;;;;;21.57;33.15;99169.00;5016082;28;20049;-64
2023/01/28 06:26:37;;;;;;;49.20;28.27;;;;;;;21.30;34.16;99168.94;5004099;28;20048;-66
2023/01/28 06:29:33;;;;;;;54.23;28.93;;;;;;;21.23;34.82;99159.41;5035323;28;20040;-66
2023/01/28 06:32:21;;;;;;;54.95;30.52;;;;;;;21.29;33.70;99161.09;5030814;28;20060;-67
2023/01/28 06:35:17;;;;;;;55.63;28.50;;;;;;;21.19;32.61;99167.19;5021192;28;20049;-68
2023/01/28 06:37:53;;;;;;;49.47;28.92;;;;;;;21.32;34.63;99149.84;5026892;28;20042;-66
2023/01/28 06:40:48;;;;;;;53.85;30.73;;;;;;;21.51;34.02;99154.63;5027978;28;20465;-64
2023/01/28 06:43:26;;;;;;;61.10;28.83;;;;;;;21.08;32.82;99155.41;5025902;28;20057;-66
2023/01/28 06:46:15;;;;;;;52.97;28.85;;;;;;;20.73;34.47;99143.34;5042869;28;20118;-64
2023/01/28 06:49:04;;;;;;;49.70;27.17;;;;;;;20.45;36.39;99130.81;5040398;28;20468;-66
2023/01/28 06:51:46;;;;;;;55.55;29.20;;;;;;;20.92;34.36;99128.53;5038012;28;20492;-65
2023/01/28 06:54:35;;;;;;;52.47;30.73;;;;;;;21.32;35.61;99112.09;5008703;28;20114;-65
2023/01/28 06:57:17;;;;;;;52.63;27.88;;;;;;;21.74;32.58;99115.78;5024094;28;20060;-64
2023/01/28 07:00:07;;;;;;;50.13;28.00;;;;;;;21.50;31.72;99112.59;5026907;28;20053;-65
2023/01/28 07:02:56;;;;;;;61.28;29.95;;;;;;;22.00;30.59;99105.25;5025666;28;20558;-64
2023/01/28 07:05:45;;;;;;;58.60;31.58;;;;;;;21.79;29.79;99088.88;5019056;28;20042;-65
2023/01/28 07:08:27;;;;;;;70.75;36.05;;;;;;;21.85;31.19;99081.66;5024888;28;20050;-63
2023/01/28 07:11:16;;;;;;;72.70;35.75;;;;;;;21.89;29.39;99069.28;5026857;28;20045;-64
2023/01/28 07:14:11;;;;;;;70.18;36.88;;;;;;;21.52;33.16;99069.19;5023831;28;20448;-64
2023/01/28 07:16:47;;;;;;;78.20;37.60;;;;;;;21.66;30.46;99059.63;5023958;28;20651;-65
2023/01/28 07:19:43;;;;;;;71.28;36.00;;;;;;;21.82;31.85;99055.19;5004926;28;20095;-63
2023/01/28 07:22:19;;;;;;;58.22;31.73;;;;;;;21.99;31.85;99053.22;5023389;28;20049;-63
2023/01/28 07:25:16;;;;;;;53.70;29.67;;;;;;;22.29;29.24;99049.94;5023106;28;20056;-66
2023/01/28 07:27:53;;;;;;;44.13;25.30;;;;;;;21.84;28.35;99048.47;5016679;28;20101;-63
2023/01/28 07:30:42;;;;;;;59.33;27.70;;;;;;;21.37;31.63;99048.31;5011193;28;20042;-69
2023/01/28 07:33:24;;;;;;;44.20;24.48;;;;;;;21.45;31.90;99044.34;5020071;28;20685;-68
2023/01/28 07:36:13;;;;;;;38.40;20.10;;;;;;;21.70;31.82;99039.19;5022265;28;20042;-67
2023/01/28 07:38:55;;;;;;;36.65;20.77;;;;;;;21.74;29.17;99032.22;5023400;28;20053;-68
2023/01/28 07:41:50;;;;;;;37.70;21.40;;;;;;;21.66;30.88;99035.38;5022454;28;20054;-67
2023/01/28 07:44:37;;;;;;;42.30;21.23;;;;;;;21.93;31.26;99028.09;5032139;28;20041;-64
2023/01/28 07:47:34;;;;;;;37.88;20.45;;;;;;;22.03;30.53;99016.56;5022189;28;20459;-65
2023/01/28 07:50:11;;;;;;;46.45;22.90;;;;;;;22.15;30.27;99013.66;5021598;28;20485;-66
2023/01/28 07:53:03;;;;;;;43.60;23.90;;;;;;;22.16;29.26;99010.72;5018730;28;20053;-64
2023/01/28 07:55:46;;;;;;;37.60;21.83;;;;;;;22.13;29.66;99007.75;5021991;28;20132;-66
2023/01/28 07:58:35;;;;;;;43.47;22.80;;;;;;;22.22;31.54;98995.34;5022758;28;20436;-70
2023/01/28 08:01:18;;;;;;;50.25;23.15;;;;;;;22.08;28.95;98988.81;5021304;28;20171;-66
2023/01/28 08:04:14;;;;;;;33.35;20.48;;;;;;;22.12;30.62;98984.53;5021741;28;20064;-64
2023/01/28 08:06:51;;;;;;;37.30;18.80;;;;;;;22.13;30.47;98983.47;5022746;28;20099;-62
2023/01/28 08:09:47;;;;;;;38.20;19.17;;;;;;;22.11;29.37;98983.72;5022186;28;20045;-69
2023/01/28 08:12:23;;;;;;;34.22;19.00;;;;;;;22.20;30.13;98971.34;5022554;28;20073;-65
2023/01/28 08:15:13;;;;;;;36.55;21.33;;;;;;;21.91;29.81;98970.84;5020662;28;20334;-69
2023/01/28 08:18:04;;;;;;;46.05;22.20;;;;;;;21.73;31.18;98968.56;5021521;28;20057;-66
2023/01/28 08:20:46;;;;;;;38.15;20.08;;;;;;;21.86;32.26;98968.13;5021823;28;20408;-64
2023/01/28 08:23:35;;;;;;;49.58;21.73;;;;;;;21.77;31.64;98956.22;5026015;28;20089;-66
2023/01/28 08:26:26;;;;;;;33.38;19.85;;;;;;;21.94;32.22;98966.88;5031371;28;20065;-64
2023/01/28 08:29:15;;;;;;;51.70;21.85;;;;;;;22.12;30.57;98960.25;5027256;28;20049;-63
2023/01/28 08:31:57;;;;;;;35.53;21.48;;;;;;;21.90;30.88;98946.88;5023286;28;20057;-65
2023/01/28 08:34:46;;;;;;;41.95;21.75;;;;;;;21.61;31.74;98937.47;5024060;28;20053;-63
2023/01/28 08:37:41;;;;;;;38.33;22.58;;;;;;;21.54;33.44;98944.97;5024131;28;20557;-63
2023/01/28 08:40:17;;;;;;;44.15;23.50;;;;;;;21.57;33.75;98949.84;5023085;28;20045;-64
2023/01/28 08:43:13;;;;;;;47.47;23.80;;;;;;;21.62;33.10;98936.41;5024578;28;20065;-65
2023/01/28 08:45:49;;;;;;;42.47;22.02;;;;;;;21.77;34.22;98937.34;5023789;28;20502;-65
2023/01/28 08:48:45;;;;;;;45.80;25.07;;;;;;;21.84;30.89;98929.81;5014544;28;20136;-64
2023/01/28 08:51:21;;;;;;;52.00;25.85;;;;;;;21.78;32.73;98930.03;5033830;28;20286;-64
2023/01/28 08:54:10;;;;;;;42.00;25.45;;;;;;;21.83;33.31;98927.38;5027498;28;20081;-64
2023/01/28 08:56:52;;;;;;;46.92;25.35;;;;;;;21.80;35.03;98928.72;5023698;28;20053;-63
2023/01/28 08:59:48;;;;;;;47.70;23.90;;;;;;;21.67;33.54;98923.78;5034670;28;20046;-64
2023/01/28 09:02:23;;;;;;;43.38;23.10;;;;;;;21.55;33.00;98916.94;5010599;28;20461;-65
2023/01/28 09:05:19;;;;;;;44.15;22.85;;;;;;;21.37;33.21;98918.97;5016902;28;20124;-65
2023/01/28 09:07:55;;;;;;;39.80;21.58;;;;;;;21.10;32.03;98920.84;5029447;28;20056;-65
2023/01/28 09:10:44;;;;;;;41.03;21.92;;;;;;;21.14;31.73;98915.78;5029473;28;20045;-64
2023/01/28 09:13:34;;;;;;;40.60;22.30;;;;;;;21.35;32.27;98915.72;5029140;28;20157;-63
2023/01/28 09:16:30;;;;;;;38.38;21.38;;;;;;;21.47;32.25;98910.94;5031255;28;20405;-64
2023/01/28 09:19:06;;;;;;;43.53;19.67;;;;;;;21.38;31.85;98911.69;5027524;28;20798;-63
2023/01/28 09:22:02;;;;;;;33.33;19.95;;;;;;;21.29;31.19;98907.81;5026651;28;20576;-63
2023/01/28 09:24:37;;;;;;;37.20;20.55;;;;;;;21.38;32.98;98907.09;5002079;28;20056;-62
2023/01/28 09:27:26;;;;;;;59.75;23.90;;;;;;;21.12;32.26;98907.91;5013746;28;20511;-63
2023/01/28 09:30:09;;;;;;;40.20;22.90;;;;;;;20.99;32.87;98903.75;5030205;28;20477;-65
2023/01/28 09:33:04;;;;;;;46.70;21.38;;;;;;;20.65;34.15;98898.84;5014175;28;20079;-65
2023/01/28 09:35:40;;;;;;;56.30;26.88;;;;;;;20.56;34.18;98896.59;5024595;28;20659;-64
2023/01/28 09:38:30;;;;;;;44.50;24.77;;;;;;;20.62;34.95;98892.09;5023283;28;20469;-63
2023/01/28 09:41:41;;;;;;;50.60;23.60;;;;;;;20.71;36.73;98895.97;5023939;28;20054;-65
2023/01/28 09:44:52;;;;;;;38.25;23.58;;;;;;;20.65;36.38;98891.56;4999359;28;20125;-64
2023/01/28 09:47:38;;;;;;;45.72;23.38;;;;;;;20.64;36.37;98900.72;5023058;28;20164;-65
2023/01/28 09:50:47;;;;;;;40.50;21.93;;;;;;;20.75;35.92;98897.06;5023123;28;20053;-65
2023/01/28 09:53:30;;;;;;;40.88;22.13;;;;;;;20.82;35.83;98896.84;5036835;28;20056;-65
2023/01/28 09:56:26;;;;;;;40.88;21.70;;;;;;;20.74;35.83;98900.81;5027138;28;20051;-64
2023/01/28 09:59:23;;;;;;;35.08;21.77;;;;;;;20.74;37.08;98900.00;5023722;28;20061;-64
2023/01/28 10:02:38;;;;;;;49.28;22.90;;;;;;;20.74;37.03;98900.00;5010608;28;20160;-65
2023/01/28 10:05:27;;;;;;;48.40;24.77;;;;;;;20.65;37.10;98901.53;5023977;28;20696;-65
2023/01/28 10:08:27;;;;;;;43.10;22.73;;;;;;;20.66;37.25;98903.16;5028324;28;20049;-64
2023/01/28 10:11:16;;;;;;;45.35;24.10;;;;;;;20.57;37.66;98897.41;5017308;28;20694;-65
2023/01/28 10:14:20;;;;;;;53.17;26.80;;;;;;;20.61;38.21;98895.84;5033356;28;20061;-66
2023/01/28 10:17:25;;;;;;;42.00;25.33;;;;;;;20.55;38.88;98896.84;5032780;28;20057;-65
2023/01/28 10:20:31;;;;;;;49.03;25.73;;;;;;;20.52;37.91;98890.09;5019369;28;20053;-64
2023/01/28 10:23:17;;;;;;;48.80;25.15;;;;;;;20.47;38.36;98886.53;5044892;28;20477;-64
2023/01/28 10:26:39;;;;;;;52.10;26.80;;;;;;;20.48;37.84;98885.47;5041033;28;20142;-66
2023/01/28 10:29:22;;;;;;;64.97;24.95;;;;;;;20.53;39.17;98891.69;5026653;28;20055;-63
2023/01/28 10:32:40;;;;;;;76.97;25.25;;;;;;;20.30;37.21;98888.47;5032194;28;20380;-62
2023/01/28 10:35:41;;;;;;;64.38;26.35;;;;;;;20.30;37.21;98883.91;5004883;28;20200;-63
2023/01/28 10:38:21;;;;;;;47.33;25.67;;;;;;;20.44;38.19;98885.16;5019455;28;20152;-65
2023/01/28 10:41:12;;;;;;;58.08;23.92;;;;;;;20.39;38.08;98886.97;5021618;28;20083;-66
2023/01/28 10:44:03;;;;;;;43.72;22.15;;;;;;;20.37;37.23;98881.84;5033329;28;20354;-62
2023/01/28 10:46:47;;;;;;;43.47;22.48;;;;;;;20.33;36.31;98878.03;5035468;28;20077;-64
2023/01/28 10:49:40;;;;;;;47.80;22.73;;;;;;;20.32;37.17;98878.25;5026925;28;20052;-64
2023/01/28 10:52:22;;;;;;;53.22;23.33;;;;;;;20.34;36.42;98876.97;5039551;28;20049;-62
2023/01/28 10:55:12;;;;;;;39.03;21.83;;;;;;;20.25;36.66;98874.94;5031349;28;20115;-66
2023/01/28 10:57:54;;;;;;;44.97;21.52;;;;;;;20.00;36.85;98868.16;5032453;28;20069;-65
2023/01/28 11:00:44;;;;;;;49.72;23.90;;;;;;;19.97;38.10;98875.91;5028704;28;20130;-66
2023/01/28 11:03:40;;;;;;;40.00;21.52;;;;;;;19.88;37.25;98872.84;5033081;28;20433;-64
2023/01/28 11:06:36;;;;;;;39.63;22.15;;;;;;;19.87;38.04;98871.22;5034781;28;20045;-65
2023/01/28 11:09:35;;;;;;;41.53;20.53;;;;;;;19.92;38.20;98876.66;5040701;28;20064;-64
2023/01/28 11:12:20;;;;;;;44.20;20.33;;;;;;;19.83;38.03;98880.00;5031125;28;20302;-64
2023/01/28 11:15:17;;;;;;;41.97;22.17;;;;;;;19.80;39.22;98877.81;5037418;28;20099;-64
2023/01/28 11:18:09;;;;;;;54.47;20.42;;;;;;;19.81;40.26;98879.47;5020456;28;20061;-64
2023/01/28 11:21:04;;;;;;;46.65;20.05;;;;;;;19.71;40.32;98875.56;5025642;28;20050;-65
2023/01/28 11:24:12;;;;;;;37.65;20.40;;;;;;;19.56;39.13;98871.84;5039637;28;20068;-65
2023/01/28 11:27:21;;;;;;;37.95;20.52;;;;;;;19.48;40.08;98870.38;5045167;28;20061;-65
2023/01/28 11:30:02;;;;;;;36.28;20.60;;;;;;;19.43;39.14;98872.97;5043432;28;20049;-66
2023/01/28 11:33:13;;;;;;;39.40;19.35;;;;;;;19.35;40.16;98872.56;5034048;28;20158;-66
2023/01/28 11:36:12;;;;;;;41.88;20.13;;;;;;;19.35;39.79;98876.06;5044518;28;20048;-64
2023/01/28 11:39:20;;;;;;;35.17;19.63;;;;;;;19.27;41.15;98877.28;5004218;28;20058;-63
2023/01/28 11:42:13;;;;;;;57.53;20.48;;;;;;;19.15;39.38;98870.38;5013449;28;20060;-66
2023/01/28 11:45:02;;;;;;;36.15;20.67;;;;;;;19.05;40.10;98864.81;5043964;28;20048;-64
2023/01/28 11:47:54;;;;;;;64.78;21.65;;;;;;;19.06;41.56;98864.59;5033647;28;20060;-63
2023/01/28 11:51:03;;;;;;;44.78;19.70;;;;;;;19.04;41.05;98858.63;5027171;28;20056;-64
2023/01/28 11:54:09;;;;;;;47.55;21.33;;;;;;;18.76;40.96;98858.69;5029982;28;20485;-63
2023/01/28 11:57:33;;;;;;;39.92;19.75;;;;;;;18.70;41.67;98860.47;5039311;28;20132;-64
2023/01/28 12:00:40;;;;;;;39.63;19.42;;;;;;;18.66;42.80;98862.00;4963159;28;20051;-63
2023/01/28 12:03:54;;;;;;;47.90;20.65;;;;;;;18.54;42.96;98861.25;5031527;28;20056;-66
2023/01/28 12:06:45;;;;;;;36.15;19.50;;;;;;;18.47;43.83;98852.47;5030425;28;20041;-65
2023/01/28 12:09:46;;;;;;;48.63;21.38;;;;;;;18.33;44.88;98857.31;5044738;28;20055;-64
2023/01/28 12:12:52;;;;;;;38.47;19.30;;;;;;;18.22;46.13;98844.78;5044698;28;20069;-65
2023/01/28 12:16:19;;;;;;;42.78;19.58;;;;;;;18.13;46.07;98843.53;5039088;28;20055;-66
2023/01/28 12:19:20;;;;;;;41.00;20.80;;;;;;;18.06;46.38;98836.66;5018354;28;20049;-64
2023/01/28 12:22:35;;;;;;;44.97;21.40;;;;;;;17.95;46.67;98839.13;5042410;28;20048;-65
2023/01/28 12:25:56;;;;;;;46.25;20.50;;;;;;;17.93;45.96;98837.72;5043968;28;20053;-62
2023/01/28 12:28:46;;;;;;;42.63;21.90;;;;;;;17.90;46.70;98831.00;5021181;28;20056;-64
2023/01/28 12:32:15;;;;;;;61.30;24.75;;;;;;;17.71;46.54;98832.19;5023061;28;20042;-62
2023/01/28 12:35:51;;;;;;;47.70;22.27;;;;;;;17.55;47.45;98832.06;4998288;28;20056;-64
2023/01/28 12:39:00;;;;;;;54.05;24.05;;;;;;;17.45;48.00;98833.44;4944011;29;20054;-63
2023/01/28 12:41:53;;;;;;;53.92;24.08;;;;;;;17.27;50.42;98835.41;4943754;28;20672;-64
2023/01/28 12:45:19;;;;;;;50.03;24.67;;;;;;;17.08;51.52;98832.06;5005192;28;20054;-64
2023/01/28 12:48:24;;;;;;;53.65;24.27;;;;;;;16.73;50.42;98823.16;5020646;28;20046;-65
2023/01/28 12:51:21;;;;;;;50.40;25.88;;;;;;;16.59;51.31;98827.88;5011788;28;20582;-63
2023/01/28 12:54:21;;;;;;;58.78;25.77;;;;;;;16.47;52.36;98819.75;5016233;28;20521;-62
2023/01/28 12:57:10;;;;;;;51.67;25.80;;;;;;;16.32;52.66;98821.22;5023675;28;20059;-63
2023/01/28 13:00:32;;;;;;;68.25;25.98;;;;;;;16.15;53.23;98813.81;5019998;28;20046;-65
2023/01/28 13:03:34;;;;;;;54.97;28.35;;;;;;;16.02;53.50;98821.22;5022186;28;20053;-64
2023/01/28 13:06:30;;;;;;;55.47;27.58;;;;;;;15.84;54.92;98822.03;5024147;28;20567;-63
2023/01/28 13:09:25;;;;;;;66.30;28.75;;;;;;;15.82;54.88;98815.28;5016152;28;20364;-63
2023/01/28 13:12:15;;;;;;;63.42;28.30;;;;;;;15.82;54.22;98809.94;4989686;28;20196;-62
2023/01/28 13:14:59;;;;;;;68.57;29.23;;;;;;;15.62;54.42;98810.97;5003202;28;20090;-65
2023/01/28 13:18:06;;;;;;;68.65;27.65;;;;;;;15.63;53.71;98814.44;5001633;28;20072;-64
2023/01/28 13:20:50;;;;;;;60.03;26.55;;;;;;;15.67;55.02;98803.09;5006310;28;20135;-64
2023/01/28 13:23:55;;;;;;;72.78;28.40;;;;;;;15.76;54.81;98800.94;4994014;28;20406;-63
2023/01/28 13:26:42;;;;;;;72.38;29.17;;;;;;;15.75;54.53;98812.69;5005037;28;20053;-65
2023/01/28 13:29:33;;;;;;;77.13;29.80;;;;;;;15.60;54.79;98807.72;5014444;28;20053;-68
2023/01/28 13:32:35;;;;;;;71.68;29.00;;;;;;;15.53;55.25;98817.66;5001632;28;20054;-67
2023/01/28 13:35:59;;;;;;;62.78;28.52;;;;;;;15.50;54.67;98823.41;5017342;28;20159;-66
2023/01/28 13:38:35;;;;;;;65.70;29.75;;;;;;;15.40;55.11;98820.41;5030161;28;20053;-68
2023/01/28 13:41:31;;;;;;;62.72;29.00;;;;;;;15.40;55.79;98827.63;5009211;28;20049;-71
2023/01/28 13:44:25;;;;;;;68.82;29.42;;;;;;;15.23;56.25;98817.47;5024550;28;20057;-68
2023/01/28 13:47:30;;;;;;;61.70;28.52;;;;;;;15.00;56.14;98819.94;5026813;28;20054;-71